createdAt,value
2019-04-14T00:00:38.698Z,9.73
2019-04-14T00:03:15.276Z,9.80
2019-04-14T00:05:43.387Z,9.70
2019-04-14T00:08:11.221Z,9.63
2019-04-14T00:10:39.987Z,9.57
2019-04-14T00:13:08.934Z,10.13
2019-04-14T00:15:42.202Z,10.07
2019-04-14T00:18:07.440Z,9.67
2019-04-14T00:20:35.884Z,9.67
2019-04-14T00:23:04.386Z,10.63
2019-04-14T00:25:32.600Z,10.03
2019-04-14T00:28:00.760Z,10.60
2019-04-14T00:30:29.487Z,10.00
2019-04-14T00:32:59.555Z,10.30
2019-04-14T00:35:34.222Z,10.00
2019-04-14T00:38:23.945Z,9.17
2019-04-14T00:41:14.001Z,10.20
2019-04-14T00:43:50.691Z,10.93
2019-04-14T00:46:34.202Z,9.90
2019-04-14T00:49:02.982Z,9.90
2019-04-14T00:51:30.959Z,9.47
2019-04-14T00:54:00.113Z,10.00
2019-04-14T00:56:27.988Z,9.27
2019-04-14T00:58:56.115Z,9.70
2019-04-14T01:01:24.388Z,9.93
2019-04-14T01:03:52.615Z,9.93
2019-04-14T01:06:20.826Z,10.70
2019-04-14T01:08:48.962Z,10.63
2019-04-14T01:11:18.099Z,10.17
2019-04-14T01:13:46.249Z,10.43
2019-04-14T01:16:19.889Z,9.83
2019-04-14T01:18:45.027Z,9.73
2019-04-14T01:21:13.177Z,9.80
2019-04-14T01:23:41.246Z,10.10
2019-04-14T01:26:09.320Z,11.00
2019-04-14T01:28:37.568Z,10.60
2019-04-14T01:31:05.591Z,9.87
2019-04-14T01:33:33.672Z,10.63
2019-04-14T01:36:01.805Z,9.80
2019-04-14T01:38:29.739Z,10.27
2019-04-14T01:40:57.795Z,10.17
2019-04-14T01:43:25.694Z,10.20
2019-04-14T01:46:06.077Z,10.23
2019-04-14T01:48:23.602Z,9.57
2019-04-14T01:51:04.959Z,10.67
2019-04-14T01:53:59.397Z,10.73
2019-04-14T01:56:40.557Z,10.60
2019-04-14T01:59:08.852Z,10.13
2019-04-14T02:01:37.243Z,11.00
2019-04-14T02:04:05.194Z,10.87
2019-04-14T02:06:33.381Z,10.07
2019-04-14T02:09:03.628Z,10.43
2019-04-14T02:11:31.460Z,10.50
2019-04-14T02:13:59.420Z,10.00
2019-04-14T02:16:36.290Z,10.47
2019-04-14T02:18:57.420Z,10.80
2019-04-14T02:21:26.209Z,9.77
2019-04-14T02:23:54.062Z,11.03
2019-04-14T02:26:22.069Z,10.87
2019-04-14T02:28:51.210Z,11.77
2019-04-14T02:31:35.751Z,11.13
2019-04-14T02:34:21.618Z,11.20
2019-04-14T02:36:50.446Z,10.37
2019-04-14T02:39:20.992Z,11.67
2019-04-14T02:41:49.444Z,10.87
2019-04-14T02:44:24.186Z,10.63
2019-04-14T02:46:45.915Z,10.97
2019-04-14T02:49:16.802Z,10.83
2019-04-14T02:51:42.350Z,11.23
2019-04-14T02:54:13.657Z,10.97
2019-04-14T02:56:45.346Z,10.87
2019-04-14T03:02:19.626Z,10.50
2019-04-14T03:04:16.880Z,10.43
2019-04-14T03:06:44.010Z,10.73
2019-04-14T03:11:39.772Z,11.50
2019-04-14T03:17:25.368Z,12.03
2019-04-14T03:22:37.736Z,11.10
2019-04-14T03:25:07.915Z,10.43
2019-04-14T03:33:32.606Z,11.43
2019-04-14T03:38:18.600Z,11.10
2019-04-14T03:43:19.507Z,10.90
2019-04-14T03:45:55.223Z,11.23
2019-04-14T03:50:45.042Z,11.53
2019-04-14T03:53:30.516Z,11.03
2019-04-14T03:56:14.924Z,11.47
2019-04-14T03:58:44.322Z,12.13
2019-04-14T04:01:12.681Z,11.93
2019-04-14T04:03:41.404Z,11.70
2019-04-14T04:06:09.686Z,11.40
2019-04-14T04:08:37.742Z,12.73
2019-04-14T04:11:06.209Z,12.83
2019-04-14T04:13:34.524Z,11.47
2019-04-14T04:16:29.009Z,12.70
2019-04-14T04:19:08.266Z,12.30
2019-04-14T04:21:55.038Z,12.30
2019-04-14T04:24:36.860Z,12.57
2019-04-14T04:27:26.665Z,12.83
2019-04-14T04:30:03.783Z,12.07
2019-04-14T04:32:49.549Z,12.00
2019-04-14T04:35:35.567Z,11.67
2019-04-14T04:38:16.599Z,11.67
2019-04-14T04:40:44.351Z,12.77
2019-04-14T04:43:12.561Z,12.67
2019-04-14T04:45:40.880Z,12.10
2019-04-14T04:48:08.983Z,12.80
2019-04-14T04:50:36.965Z,11.40
2019-04-14T04:53:04.916Z,11.67
2019-04-14T04:55:32.887Z,12.57
2019-04-14T04:58:01.381Z,12.43
2019-04-14T05:00:29.167Z,12.07
2019-04-14T05:02:57.115Z,12.30
2019-04-14T05:06:09.132Z,11.97
2019-04-14T05:08:39.167Z,11.33
2019-04-14T05:11:21.400Z,11.73
2019-04-14T05:13:49.387Z,11.87
2019-04-14T05:16:17.140Z,11.30
2019-04-14T05:18:46.241Z,11.87
2019-04-14T05:21:14.897Z,11.53
2019-04-14T05:23:43.130Z,11.27
2019-04-14T05:26:11.290Z,11.60
2019-04-14T05:28:39.642Z,11.27
2019-04-14T05:31:07.690Z,11.83
2019-04-14T05:33:35.998Z,11.43
2019-04-14T05:36:04.196Z,12.60
2019-04-14T05:38:33.803Z,11.47
2019-04-14T05:41:02.721Z,11.67
2019-04-14T05:43:41.469Z,12.00
2019-04-14T05:46:01.298Z,11.70
2019-04-14T05:48:29.402Z,12.50
2019-04-14T05:50:57.736Z,12.23
2019-04-14T05:53:26.240Z,11.77
2019-04-14T05:55:54.625Z,12.23
2019-04-14T05:58:23.226Z,12.47
2019-04-14T06:00:51.857Z,12.10
2019-04-14T06:03:19.696Z,12.80
2019-04-14T06:05:47.445Z,12.00
2019-04-14T06:08:15.197Z,12.07
2019-04-14T06:10:42.970Z,12.23
2019-04-14T06:13:11.882Z,11.73
2019-04-14T06:15:39.800Z,12.03
2019-04-14T06:18:07.553Z,12.43
2019-04-14T06:20:35.522Z,12.17
2019-04-14T06:23:03.291Z,12.70
2019-04-14T06:25:31.078Z,12.87
2019-04-14T06:27:58.838Z,11.80
2019-04-14T06:30:48.653Z,12.00
2019-04-14T06:33:30.725Z,11.27
2019-04-14T06:36:30.244Z,12.50
2019-04-14T06:39:04.370Z,11.43
2019-04-14T06:41:32.148Z,11.50
2019-04-14T06:43:59.892Z,11.63
2019-04-14T06:46:27.629Z,10.43
2019-04-14T06:48:55.401Z,10.07
2019-04-14T06:51:23.176Z,9.80
2019-04-14T06:53:50.962Z,8.70
2019-04-14T06:56:18.794Z,9.03
2019-04-14T06:58:46.538Z,7.70
2019-04-14T07:01:14.300Z,8.13
2019-04-14T07:03:42.150Z,7.53
2019-04-14T07:06:09.952Z,7.60
2019-04-14T07:08:37.736Z,8.10
2019-04-14T07:11:05.480Z,7.20
2019-04-14T07:13:33.241Z,7.13
2019-04-14T07:16:01.020Z,6.97
2019-04-14T07:18:28.752Z,7.00
2019-04-14T07:20:56.536Z,7.60
2019-04-14T07:23:24.393Z,6.67
2019-04-14T07:25:52.189Z,6.90
2019-04-14T07:28:19.981Z,6.13
2019-04-14T07:31:19.263Z,6.97
2019-04-14T07:34:00.517Z,6.80
2019-04-14T07:36:47.925Z,6.47
2019-04-14T07:39:50.992Z,6.40
2019-04-14T07:42:25.088Z,6.97
2019-04-14T07:45:18.060Z,6.90
2019-04-14T07:48:09.450Z,8.03
2019-04-14T07:51:02.500Z,9.20
2019-04-14T07:53:52.634Z,6.93
2019-04-14T07:56:40.131Z,6.00
2019-04-14T07:59:16.074Z,6.23
2019-04-14T08:01:57.115Z,6.00
2019-04-14T08:04:27.434Z,6.93
2019-04-14T08:06:57.169Z,6.33
2019-04-14T08:09:24.947Z,6.40
2019-04-14T08:11:52.674Z,5.77
2019-04-14T08:14:20.759Z,6.13
2019-04-14T08:16:48.508Z,6.40
2019-04-14T08:19:16.449Z,6.97
2019-04-14T08:21:44.182Z,6.50
2019-04-14T08:24:12.070Z,6.67
2019-04-14T08:26:39.799Z,5.93
2019-04-14T08:29:07.598Z,6.87
2019-04-14T08:31:35.358Z,7.27
2019-04-14T08:34:03.421Z,7.20
2019-04-14T08:36:33.306Z,6.43
2019-04-14T08:39:01.036Z,6.80
2019-04-14T08:41:33.039Z,7.70
2019-04-14T08:44:20.397Z,6.97
2019-04-14T08:47:13.967Z,7.13
2019-04-14T08:50:04.452Z,7.63
2019-04-14T08:52:48.065Z,7.10
2019-04-14T08:55:20.266Z,7.90
2019-04-14T08:58:05.924Z,7.40
2019-04-14T09:01:05.594Z,7.63
2019-04-14T09:03:53.759Z,8.27
2019-04-14T09:06:41.289Z,7.83
2019-04-14T09:09:26.602Z,7.10
2019-04-14T09:12:15.311Z,7.50
2019-04-14T09:14:36.467Z,8.43
2019-04-14T09:17:04.340Z,8.13
2019-04-14T09:19:32.729Z,7.33
2019-04-14T09:22:00.679Z,8.03
2019-04-14T09:24:28.500Z,8.00
2019-04-14T09:26:56.365Z,7.80
2019-04-14T09:29:24.277Z,8.00
2019-04-14T09:31:52.122Z,8.27
2019-04-14T09:34:19.905Z,7.37
2019-04-14T09:36:47.774Z,7.63
2019-04-14T09:39:15.652Z,7.30
2019-04-14T09:41:43.461Z,7.47
2019-04-14T09:44:11.250Z,7.53
2019-04-14T09:46:39.109Z,6.97
2019-04-14T09:49:07.163Z,7.57
2019-04-14T09:51:34.995Z,6.83
2019-04-14T09:54:02.784Z,6.73
2019-04-14T09:56:30.563Z,7.00
2019-04-14T09:58:58.359Z,6.43
2019-04-14T10:01:26.476Z,7.03
2019-04-14T10:03:54.249Z,6.33
2019-04-14T10:06:22.006Z,6.37
2019-04-14T10:08:51.803Z,6.50
2019-04-14T10:11:19.680Z,6.60
2019-04-14T10:13:47.517Z,6.70
2019-04-14T10:16:15.342Z,6.73
2019-04-14T10:18:43.131Z,6.60
2019-04-14T10:21:17.177Z,6.53
2019-04-14T10:23:40.761Z,6.57
2019-04-14T10:26:08.547Z,6.23
2019-04-14T10:28:36.308Z,7.03
2019-04-14T10:31:04.127Z,6.33
2019-04-14T10:33:31.957Z,6.47
2019-04-14T10:35:59.842Z,5.53
2019-04-14T10:38:28.400Z,5.97
2019-04-14T10:40:56.163Z,5.97
2019-04-14T10:43:23.973Z,5.63
2019-04-14T10:45:51.764Z,5.43
2019-04-14T10:48:19.536Z,6.03
2019-04-14T10:50:47.364Z,5.70
2019-04-14T10:53:16.233Z,6.07
2019-04-14T10:55:44.093Z,6.10
2019-04-14T10:58:11.933Z,6.40
2019-04-14T11:00:40.009Z,6.50
2019-04-14T11:03:07.809Z,6.60
2019-04-14T11:05:58.459Z,6.17
2019-04-14T11:08:26.324Z,6.67
2019-04-14T11:10:54.278Z,6.77
2019-04-14T11:13:22.258Z,6.73
2019-04-14T11:15:50.024Z,6.37
2019-04-14T11:18:17.813Z,7.10
2019-04-14T11:20:46.822Z,6.40
2019-04-14T11:23:14.626Z,6.37
2019-04-14T11:25:42.442Z,7.07
2019-04-14T11:28:10.217Z,6.60
2019-04-14T11:30:38.227Z,6.20
2019-04-14T11:33:11.636Z,6.60
2019-04-14T11:35:59.056Z,6.03
2019-04-14T11:38:51.379Z,6.40
2019-04-14T11:41:21.285Z,6.50
2019-04-14T11:43:49.037Z,7.10
2019-04-14T11:46:16.822Z,7.23
2019-04-14T11:48:44.630Z,6.70
2019-04-14T11:51:12.388Z,6.97
2019-04-14T11:53:40.419Z,6.80
2019-04-14T11:56:08.651Z,6.33
2019-04-14T11:58:36.430Z,6.83
2019-04-14T12:01:13.967Z,6.80
2019-04-14T12:03:54.806Z,6.30
2019-04-14T12:06:42.233Z,7.10
2019-04-14T12:09:35.523Z,6.87
2019-04-14T12:12:06.009Z,6.50
2019-04-14T12:14:33.777Z,6.70
2019-04-14T12:17:01.552Z,6.63
2019-04-14T12:19:29.326Z,6.67
2019-04-14T12:22:07.617Z,7.63
2019-04-14T12:24:26.855Z,7.60
2019-04-14T12:26:54.785Z,7.60
2019-04-14T12:29:23.636Z,8.13
2019-04-14T12:31:53.016Z,8.13
2019-04-14T12:34:20.866Z,8.47
2019-04-14T12:36:48.696Z,9.30
2019-04-14T12:39:23.161Z,10.03
2019-04-14T12:42:06.124Z,9.90
2019-04-14T12:44:53.741Z,10.10
2019-04-14T12:47:46.971Z,11.27
2019-04-14T12:50:34.453Z,11.40
2019-04-14T12:53:02.337Z,10.90
2019-04-14T12:55:30.134Z,11.23
2019-04-14T12:58:00.368Z,11.93
2019-04-14T13:00:56.630Z,12.90
2019-04-14T13:03:25.607Z,12.80
2019-04-14T13:05:53.453Z,13.20
2019-04-14T13:08:21.248Z,13.90
2019-04-14T13:10:49.000Z,13.90
2019-04-14T13:13:16.770Z,13.70
2019-04-14T13:15:44.508Z,14.83
2019-04-14T13:18:12.345Z,14.77
2019-04-14T13:20:40.122Z,14.50
2019-04-14T13:23:07.934Z,15.07
2019-04-14T13:25:35.761Z,15.07
2019-04-14T13:28:03.571Z,15.43
2019-04-14T13:30:34.341Z,15.87
2019-04-14T13:33:02.088Z,16.20
2019-04-14T13:35:29.856Z,15.23
2019-04-14T13:37:57.648Z,16.20
2019-04-14T13:40:25.488Z,17.20
2019-04-14T13:42:53.322Z,17.13
2019-04-14T13:45:21.068Z,15.50
2019-04-14T13:47:48.870Z,15.97
2019-04-14T13:50:16.641Z,16.93
2019-04-14T13:52:47.191Z,17.40
2019-04-14T13:55:15.259Z,17.50
2019-04-14T13:57:43.002Z,16.10
2019-04-14T14:00:12.126Z,18.23
2019-04-14T14:02:39.890Z,17.33
2019-04-14T14:05:07.731Z,17.43
2019-04-14T14:07:35.626Z,17.10
2019-04-14T14:10:04.459Z,17.50
2019-04-14T14:13:03.541Z,18.27
2019-04-14T14:15:49.343Z,16.83
2019-04-14T14:18:33.626Z,18.27
2019-04-14T14:21:15.323Z,16.57
2019-04-14T14:24:00.779Z,17.27
2019-04-14T14:26:29.207Z,17.73
2019-04-14T14:28:56.978Z,17.23
2019-04-14T14:31:24.963Z,17.53
2019-04-14T14:33:52.700Z,17.90
2019-04-14T14:36:20.470Z,18.03
2019-04-14T14:38:48.531Z,16.57
2019-04-14T14:41:17.092Z,17.77
2019-04-14T14:43:44.957Z,18.90
2019-04-14T14:46:42.713Z,19.53
2019-04-14T14:49:18.965Z,19.53
2019-04-14T14:52:00.239Z,19.80
2019-04-14T14:54:28.003Z,20.57
2019-04-14T14:56:55.808Z,20.00
2019-04-14T14:59:23.547Z,21.20
2019-04-14T15:01:51.424Z,21.60
2019-04-14T15:04:19.439Z,20.13
2019-04-14T15:06:47.347Z,21.57
2019-04-14T15:09:15.126Z,21.43
2019-04-14T15:11:43.033Z,21.60
2019-04-14T15:14:10.890Z,21.87
2019-04-14T15:16:38.656Z,22.43
2019-04-14T15:19:06.455Z,23.27
2019-04-14T15:21:34.301Z,23.17
2019-04-14T15:24:02.100Z,22.50
2019-04-14T15:26:29.870Z,23.67
2019-04-14T15:28:57.660Z,23.73
2019-04-14T15:31:25.577Z,21.80
2019-04-14T15:33:53.602Z,23.27
2019-04-14T15:36:21.373Z,24.13
2019-04-14T15:38:49.265Z,22.33
2019-04-14T15:41:17.033Z,22.53
2019-04-14T15:43:44.874Z,21.93
2019-04-14T15:46:12.647Z,21.77
2019-04-14T15:48:40.423Z,21.97
2019-04-14T15:51:08.177Z,21.47
2019-04-14T15:53:38.265Z,23.73
2019-04-14T15:56:06.381Z,22.37
2019-04-14T15:58:50.885Z,23.33
2019-04-14T16:01:41.291Z,22.83
2019-04-14T16:04:34.427Z,22.40
2019-04-14T16:07:14.800Z,23.23
2019-04-14T16:09:54.271Z,23.27
2019-04-14T16:12:36.998Z,23.57
2019-04-14T16:15:22.755Z,22.27
2019-04-14T16:18:10.496Z,22.37
2019-04-14T16:20:40.354Z,22.07
2019-04-14T16:23:08.260Z,22.73
2019-04-14T16:25:55.644Z,21.40
2019-04-14T16:28:49.016Z,21.33
2019-04-14T16:31:39.161Z,22.00
2019-04-14T16:34:12.994Z,23.07
2019-04-14T16:36:42.000Z,22.53
2019-04-14T16:39:12.118Z,23.77
2019-04-14T16:41:39.948Z,22.47
2019-04-14T16:44:07.707Z,22.43
2019-04-14T16:46:35.490Z,23.70
2019-04-14T16:49:03.282Z,23.40
2019-04-14T16:51:40.308Z,22.73
2019-04-14T16:54:18.650Z,23.00
2019-04-14T16:57:20.750Z,22.53
2019-04-14T16:59:48.579Z,22.57
2019-04-14T17:02:16.388Z,23.57
2019-04-14T17:04:44.145Z,23.60
2019-04-14T17:07:12.011Z,24.00
2019-04-14T17:09:39.741Z,24.77
2019-04-14T17:12:07.522Z,24.87
2019-04-14T17:14:42.954Z,26.30
2019-04-14T17:17:32.326Z,24.60
2019-04-14T17:20:05.649Z,24.17
2019-04-14T17:23:08.035Z,24.83
2019-04-14T17:25:48.120Z,23.97
2019-04-14T17:28:41.317Z,23.87
2019-04-14T17:31:18.443Z,25.53
2019-04-14T17:33:56.012Z,25.30
2019-04-14T17:36:45.872Z,25.37
2019-04-14T17:39:39.021Z,24.97
2019-04-14T17:42:17.547Z,25.00
2019-04-14T17:45:10.725Z,25.23
2019-04-14T17:47:54.075Z,25.60
2019-04-14T17:50:44.499Z,26.50
2019-04-14T17:53:22.338Z,25.97
2019-04-14T17:56:11.630Z,25.50
2019-04-14T17:59:01.836Z,27.00
2019-04-14T18:01:35.646Z,25.50
2019-04-14T18:04:08.216Z,26.20
2019-04-14T18:06:52.192Z,26.23
2019-04-14T18:09:45.147Z,27.53
2019-04-14T18:12:50.275Z,25.67
2019-04-14T18:15:46.457Z,24.67
2019-04-14T18:18:40.174Z,25.50
2019-04-14T18:21:08.815Z,26.47
2019-04-14T18:23:36.680Z,27.10
2019-04-14T18:26:04.940Z,26.90
2019-04-14T18:28:58.491Z,27.30
2019-04-14T18:31:40.864Z,26.57
2019-04-14T18:34:46.133Z,27.27
2019-04-14T18:37:36.334Z,27.27
2019-04-14T18:40:21.044Z,27.43
2019-04-14T18:43:08.494Z,26.87
2019-04-14T18:45:50.820Z,29.70
2019-04-14T18:48:25.193Z,27.17
2019-04-14T18:51:07.874Z,26.97
2019-04-14T18:53:53.690Z,25.60
2019-04-14T18:56:38.146Z,26.23
2019-04-14T18:59:27.298Z,26.13
2019-04-14T19:01:55.476Z,25.17
2019-04-14T19:04:23.254Z,25.67
2019-04-14T19:06:51.032Z,25.90
2019-04-14T19:09:18.802Z,24.70
2019-04-14T19:12:09.017Z,24.73
2019-04-14T19:14:38.589Z,24.93
2019-04-14T19:17:17.081Z,22.80
2019-04-14T19:20:00.583Z,23.33
2019-04-14T19:22:18.187Z,23.80
2019-04-14T19:24:45.974Z,23.57
2019-04-14T19:27:13.803Z,22.53
2019-04-14T19:29:41.555Z,24.50
2019-04-14T19:32:09.352Z,23.53
2019-04-14T19:34:37.136Z,23.10
2019-04-14T19:37:04.959Z,22.97
2019-04-14T19:39:32.743Z,23.70
2019-04-14T19:42:00.564Z,22.10
2019-04-14T19:44:28.313Z,22.70
2019-04-14T19:46:56.117Z,22.87
2019-04-14T19:49:23.879Z,22.30
2019-04-14T19:51:51.633Z,22.37
2019-04-14T19:54:19.412Z,22.13
2019-04-14T19:56:47.202Z,21.77
2019-04-14T19:59:14.999Z,21.73
2019-04-14T20:01:42.799Z,21.60
2019-04-14T20:04:10.664Z,20.30
2019-04-14T20:06:38.507Z,21.97
2019-04-14T20:09:06.545Z,20.30
2019-04-14T20:11:34.449Z,20.57
2019-04-14T20:14:02.313Z,20.53
2019-04-14T20:17:01.495Z,19.17
2019-04-14T20:19:37.331Z,21.63
2019-04-14T20:22:19.901Z,18.97
2019-04-14T20:24:54.033Z,17.90
2019-04-14T20:27:44.204Z,18.47
2019-04-14T20:30:17.559Z,18.17
2019-04-14T20:32:45.367Z,18.33
2019-04-14T20:35:13.248Z,17.63
2019-04-14T20:37:41.040Z,17.33
2019-04-14T20:40:09.259Z,17.43
2019-04-14T20:42:37.464Z,17.30
2019-04-14T20:45:06.490Z,17.40
2019-04-14T20:47:34.218Z,16.20
2019-04-14T20:50:02.126Z,16.17
2019-04-14T20:52:29.898Z,16.67
2019-04-14T20:54:57.745Z,15.67
2019-04-14T20:57:26.395Z,16.00
2019-04-14T20:59:54.642Z,16.00
2019-04-14T21:02:47.724Z,16.03
2019-04-14T21:05:47.084Z,14.60
2019-04-14T21:08:37.259Z,14.73
2019-04-14T21:11:11.226Z,13.73
2019-04-14T21:13:58.596Z,14.27
2019-04-14T21:16:44.689Z,15.13
2019-04-14T21:19:17.529Z,13.17
2019-04-14T21:21:54.116Z,13.20
2019-04-14T21:24:41.506Z,13.73
2019-04-14T21:27:28.911Z,12.93
2019-04-14T21:30:11.342Z,12.63
2019-04-14T21:32:44.107Z,11.80
2019-04-14T21:35:40.279Z,12.70
2019-04-14T21:38:26.377Z,12.57
2019-04-14T21:41:00.795Z,13.43
2019-04-14T21:43:28.548Z,12.67
2019-04-14T21:45:56.282Z,11.50
2019-04-14T21:48:24.065Z,12.20
2019-04-14T21:50:51.920Z,11.80
2019-04-14T21:53:19.667Z,11.97
2019-04-14T21:55:47.391Z,12.07
2019-04-14T21:58:23.452Z,12.60
2019-04-14T22:01:54.851Z,11.50
2019-04-14T22:04:40.848Z,11.60
2019-04-14T22:07:26.763Z,11.77
2019-04-14T22:09:58.441Z,12.10
2019-04-14T22:12:26.336Z,11.73
2019-04-14T22:14:54.073Z,11.97
2019-04-14T22:17:21.837Z,11.80
2019-04-14T22:19:49.656Z,12.10
2019-04-14T22:22:17.424Z,10.90
2019-04-14T22:24:45.180Z,11.60
2019-04-14T22:27:12.947Z,11.60
2019-04-14T22:29:40.674Z,11.87
2019-04-14T22:32:08.432Z,11.10
2019-04-14T22:34:36.188Z,11.83
2019-04-14T22:37:03.946Z,11.53
2019-04-14T22:39:31.723Z,11.03
2019-04-14T22:41:59.475Z,10.83
2019-04-14T22:44:27.274Z,11.30
2019-04-14T22:46:55.012Z,11.53
2019-04-14T22:49:22.796Z,11.33
2019-04-14T22:51:50.562Z,11.47
2019-04-14T22:54:18.456Z,11.70
2019-04-14T22:56:46.243Z,11.70
2019-04-14T22:59:14.510Z,11.70
2019-04-14T23:01:44.211Z,11.23
2019-04-14T23:04:37.590Z,10.77
2019-04-14T23:07:23.315Z,11.30
2019-04-14T23:10:13.754Z,11.40
2019-04-14T23:12:54.010Z,10.90
2019-04-14T23:15:39.752Z,9.87
2019-04-14T23:18:22.608Z,11.80
2019-04-14T23:21:09.985Z,10.90
2019-04-14T23:24:00.151Z,11.83
2019-04-14T23:26:27.944Z,11.17
2019-04-14T23:28:55.676Z,11.77
2019-04-14T23:31:23.547Z,10.73
2019-04-14T23:33:51.299Z,10.80
2019-04-14T23:36:19.057Z,11.03
2019-04-14T23:38:46.824Z,11.43
2019-04-14T23:41:14.583Z,12.20
2019-04-14T23:43:42.311Z,10.83
2019-04-14T23:46:10.477Z,12.00
2019-04-14T23:48:38.236Z,11.83
2019-04-14T23:51:06.207Z,10.50
2019-04-14T23:53:33.930Z,11.33
2019-04-14T23:56:01.749Z,11.97
2019-04-14T23:58:29.536Z,11.87
